Terminal Aerodrome Forecast
Issued by NWS

Home | Current Version | Previous Version | Text Only | Print | Product List | Glossary On
Versions: 1 2 3 4 5 6 7 8 9 10 11 12 13 14 15 16 17
000
FTAK31 PAJN 211200 AAA
TAFASI
TAF AMD
PASI 211240Z 2113/2212 11010G20KT P6SM -SHRA FEW015 BKN040 OVC060
      TEMPO 2113/2116 11015G28KT
     FM212100 20010KT P6SM -SHRA SCT030 BKN060
     FM220100 31005KT P6SM SCT030 BKN080=

USA.gov is the U.S. government's official web portal to all federal, state and local government web resources and services.